createdAt,value
2018-06-18T00:01:20.231Z,5.10
2018-06-18T00:04:53.473Z,4.43
2018-06-18T00:08:26.745Z,5.37
2018-06-18T00:12:00.000Z,5.00
2018-06-18T00:15:33.256Z,4.93
2018-06-18T00:19:06.516Z,5.33
2018-06-18T00:22:39.757Z,4.70
2018-06-18T00:26:14.243Z,5.20
2018-06-18T00:29:47.532Z,5.17
2018-06-18T00:33:20.831Z,5.70
2018-06-18T00:36:54.080Z,5.00
2018-06-18T00:40:27.059Z,5.13
2018-06-18T00:44:00.299Z,4.57
2018-06-18T00:47:33.532Z,4.90
2018-06-18T00:51:06.808Z,4.97
2018-06-18T00:54:40.117Z,5.43
2018-06-18T00:58:13.630Z,5.47
2018-06-18T01:01:46.883Z,4.30
2018-06-18T01:05:19.915Z,4.60
2018-06-18T01:08:53.133Z,4.80
2018-06-18T01:12:26.396Z,4.73
2018-06-18T01:15:59.612Z,4.23
2018-06-18T01:19:32.837Z,4.80
2018-06-18T01:24:14.484Z,4.17
2018-06-18T01:27:47.714Z,4.50
2018-06-18T01:31:21.016Z,4.80
2018-06-18T01:34:54.605Z,4.40
2018-06-18T01:38:27.858Z,4.60
2018-06-18T01:42:01.086Z,4.90
2018-06-18T01:45:34.327Z,4.23
2018-06-18T01:49:07.537Z,4.20
2018-06-18T01:52:40.763Z,4.50
2018-06-18T01:56:13.988Z,4.30
2018-06-18T01:59:47.228Z,4.70
2018-06-18T02:03:20.456Z,4.40
2018-06-18T02:06:53.801Z,4.93
2018-06-18T02:10:27.077Z,4.40
2018-06-18T02:14:00.268Z,4.40
2018-06-18T02:17:33.482Z,4.20
2018-06-18T02:21:06.781Z,4.00
2018-06-18T02:24:40.032Z,3.80
2018-06-18T02:28:18.595Z,3.80
2018-06-18T02:31:57.316Z,4.33
2018-06-18T02:35:35.898Z,3.90
2018-06-18T02:39:12.323Z,4.53
2018-06-18T02:42:45.347Z,4.20
2018-06-18T02:46:18.730Z,4.37
2018-06-18T02:49:51.764Z,4.47
2018-06-18T02:53:24.992Z,4.63
2018-06-18T02:57:03.063Z,5.10
2018-06-18T03:00:36.305Z,4.93
2018-06-18T03:04:09.625Z,4.53
2018-06-18T03:07:42.842Z,5.27
2018-06-18T03:11:16.228Z,5.20
2018-06-18T03:14:49.458Z,5.20
2018-06-18T03:18:28.099Z,4.93
2018-06-18T03:22:06.810Z,4.97
2018-06-18T03:25:45.374Z,4.43
2018-06-18T03:29:20.992Z,4.60
2018-06-18T03:32:54.227Z,4.43
2018-06-18T03:36:27.447Z,5.20
2018-06-18T03:40:00.695Z,5.60
2018-06-18T03:43:36.134Z,4.90
2018-06-18T03:47:15.197Z,5.50
2018-06-18T03:50:48.423Z,5.30
2018-06-18T03:54:21.647Z,5.10
2018-06-18T03:57:54.931Z,4.63
2018-06-18T04:01:46.408Z,5.50
2018-06-18T04:05:25.002Z,4.43
2018-06-18T04:09:03.853Z,5.13
2018-06-18T04:12:37.107Z,5.77
2018-06-18T04:16:10.342Z,5.20
2018-06-18T04:19:43.568Z,4.57
2018-06-18T04:23:17.101Z,4.97
2018-06-18T04:26:50.381Z,5.33
2018-06-18T04:30:23.645Z,5.57
2018-06-18T04:34:02.651Z,4.20
2018-06-18T04:37:36.007Z,4.60
2018-06-18T04:41:09.231Z,6.37
2018-06-18T04:44:47.707Z,4.47
2018-06-18T04:48:26.283Z,4.60
2018-06-18T04:51:59.532Z,5.27
2018-06-18T04:55:32.531Z,4.23
2018-06-18T04:59:05.752Z,4.07
2018-06-18T05:02:39.552Z,4.63
2018-06-18T05:06:12.853Z,4.70
2018-06-18T05:10:04.743Z,4.17
2018-06-18T05:13:37.946Z,3.60
2018-06-18T05:17:11.175Z,4.43
2018-06-18T05:20:44.453Z,4.83
2018-06-18T05:24:17.692Z,4.77
2018-06-18T05:27:51.025Z,3.83
2018-06-18T05:31:24.316Z,4.43
2018-06-18T05:34:57.661Z,4.20
2018-06-18T05:38:35.913Z,4.83
2018-06-18T05:42:09.126Z,4.30
2018-06-18T05:45:42.379Z,4.20
2018-06-18T05:49:15.624Z,4.73
2018-06-18T05:52:50.099Z,4.50
2018-06-18T05:56:23.411Z,3.93
2018-06-18T05:59:56.632Z,4.50
2018-06-18T06:03:29.920Z,3.63
2018-06-18T06:07:03.129Z,4.77
2018-06-18T06:10:36.547Z,3.77
2018-06-18T06:14:09.780Z,3.70
2018-06-18T06:17:43.020Z,4.07
2018-06-18T06:21:16.361Z,4.23
2018-06-18T06:24:49.604Z,3.73
2018-06-18T06:28:25.115Z,3.10
2018-06-18T06:32:08.115Z,3.63
2018-06-18T06:35:47.057Z,3.90
2018-06-18T06:39:22.700Z,3.60
2018-06-18T06:43:06.342Z,3.60
2018-06-18T06:46:44.272Z,2.93
2018-06-18T06:50:17.763Z,2.83
2018-06-18T06:53:50.784Z,3.60
2018-06-18T06:57:24.019Z,3.80
2018-06-18T07:00:57.250Z,2.90
2018-06-18T07:04:30.228Z,3.20
2018-06-18T07:08:03.533Z,2.77
2018-06-18T07:11:36.881Z,3.23
2018-06-18T07:15:10.115Z,2.80
2018-06-18T07:18:43.363Z,2.60
2018-06-18T07:22:16.697Z,3.10
2018-06-18T07:25:50.032Z,2.87
2018-06-18T07:29:23.295Z,2.40
2018-06-18T07:32:56.550Z,2.70
2018-06-18T07:36:29.527Z,2.40
2018-06-18T07:40:02.778Z,2.90
2018-06-18T07:43:36.067Z,2.57
2018-06-18T07:47:09.295Z,2.70
2018-06-18T07:50:42.580Z,2.67
2018-06-18T07:54:15.824Z,3.20
2018-06-18T07:57:49.076Z,3.20
2018-06-18T08:01:22.309Z,3.80
2018-06-18T08:04:55.546Z,4.30
2018-06-18T08:08:28.795Z,2.80
2018-06-18T08:12:02.057Z,2.63
2018-06-18T08:15:35.303Z,3.50
2018-06-18T08:19:08.617Z,3.17
2018-06-18T08:22:41.842Z,4.63
2018-06-18T08:26:14.814Z,3.93
2018-06-18T08:29:48.074Z,3.27
2018-06-18T08:33:21.315Z,3.10
2018-06-18T08:36:54.619Z,2.90
2018-06-18T08:40:27.855Z,3.70
2018-06-18T08:44:01.083Z,3.20
2018-06-18T08:47:34.319Z,3.97
2018-06-18T08:51:12.957Z,3.40
2018-06-18T08:54:51.635Z,3.60
2018-06-18T08:58:30.178Z,3.60
2018-06-18T09:02:03.446Z,3.50
2018-06-18T09:05:43.271Z,4.17
2018-06-18T09:09:16.521Z,2.90
2018-06-18T09:12:49.785Z,3.77
2018-06-18T09:16:23.101Z,3.63
2018-06-18T09:19:56.345Z,3.47
2018-06-18T09:23:29.612Z,3.47
2018-06-18T09:27:08.203Z,3.10
2018-06-18T09:30:41.444Z,3.13
2018-06-18T09:34:14.734Z,3.57
2018-06-18T09:37:47.987Z,3.50
2018-06-18T09:41:21.239Z,4.13
2018-06-18T09:44:54.482Z,3.43
2018-06-18T09:48:33.155Z,3.53
2018-06-18T09:52:11.773Z,3.40
2018-06-18T09:55:50.534Z,3.37
2018-06-18T09:59:39.638Z,3.10
2018-06-18T10:03:12.919Z,2.97
2018-06-18T10:06:46.209Z,3.73
2018-06-18T10:10:19.428Z,3.90
2018-06-18T10:13:52.683Z,3.37
2018-06-18T10:17:26.377Z,3.23
2018-06-18T10:20:59.615Z,2.83
2018-06-18T10:24:32.937Z,4.20
2018-06-18T10:28:06.474Z,3.60
2018-06-18T10:31:39.566Z,3.70
2018-06-18T10:35:18.177Z,3.13
2018-06-18T10:38:56.648Z,3.77
2018-06-18T10:42:35.215Z,3.33
2018-06-18T10:46:08.472Z,3.70
2018-06-18T10:49:41.716Z,3.53
2018-06-18T10:53:14.971Z,3.57
2018-06-18T10:56:48.243Z,3.23
2018-06-18T11:00:24.507Z,3.90
2018-06-18T11:03:58.410Z,3.50
2018-06-18T11:07:32.223Z,3.60
2018-06-18T11:11:05.269Z,3.13
2018-06-18T11:14:38.692Z,3.80
2018-06-18T11:18:17.332Z,2.80
2018-06-18T11:21:56.164Z,3.00
2018-06-18T11:25:34.901Z,3.50
2018-06-18T11:29:08.130Z,3.40
2018-06-18T11:32:41.461Z,2.67
2018-06-18T11:36:14.848Z,3.00
2018-06-18T11:39:48.215Z,3.20
2018-06-18T11:43:21.611Z,2.77
2018-06-18T11:46:54.953Z,2.53
2018-06-18T11:50:28.340Z,2.90
2018-06-18T11:54:01.768Z,3.27
2018-06-18T11:57:35.100Z,4.10
2018-06-18T12:01:13.785Z,3.10
2018-06-18T12:04:52.600Z,2.80
2018-06-18T12:08:31.442Z,2.60
2018-06-18T12:12:04.701Z,2.80
2018-06-18T12:15:37.944Z,3.23
2018-06-18T12:19:11.214Z,3.10
2018-06-18T12:22:44.200Z,3.27
2018-06-18T12:26:17.502Z,2.80
2018-06-18T12:29:50.791Z,2.70
2018-06-18T12:33:24.060Z,2.50
2018-06-18T12:36:57.299Z,3.20
2018-06-18T12:40:30.538Z,3.40
2018-06-18T12:44:03.784Z,2.83
2018-06-18T12:47:42.443Z,2.70
2018-06-18T12:51:21.082Z,2.77
2018-06-18T12:54:59.632Z,2.80
2018-06-18T12:58:32.883Z,3.10
2018-06-18T13:02:11.000Z,2.77
2018-06-18T13:05:44.216Z,2.63
2018-06-18T13:09:17.468Z,2.53
2018-06-18T13:12:51.147Z,2.33
2018-06-18T13:16:24.477Z,2.60
2018-06-18T13:19:58.415Z,2.60
2018-06-18T13:23:32.492Z,2.30
2018-06-18T13:27:05.739Z,2.53
2018-06-18T13:30:39.081Z,2.30
2018-06-18T13:34:12.350Z,2.30
2018-06-18T13:37:50.956Z,2.40
2018-06-18T13:41:29.623Z,1.90
2018-06-18T13:45:08.376Z,3.50
2018-06-18T13:49:00.201Z,2.43
2018-06-18T13:52:35.946Z,2.40
2018-06-18T13:56:09.339Z,2.53
2018-06-18T13:59:42.721Z,2.80
2018-06-18T14:03:15.973Z,2.60
2018-06-18T14:06:49.225Z,3.47
2018-06-18T14:10:22.467Z,2.60
2018-06-18T14:13:55.908Z,2.40
2018-06-18T14:17:29.072Z,2.47
2018-06-18T14:21:02.295Z,2.23
2018-06-18T14:24:35.544Z,2.33
2018-06-18T14:28:08.514Z,2.57
2018-06-18T14:31:47.102Z,1.93
2018-06-18T14:35:25.668Z,2.70
2018-06-18T14:39:04.180Z,2.30
2018-06-18T14:42:37.638Z,2.50
2018-06-18T14:46:10.917Z,2.50
2018-06-18T14:49:44.334Z,2.60
2018-06-18T14:53:17.635Z,2.90
2018-06-18T14:56:52.603Z,2.73
2018-06-18T15:00:27.693Z,2.50
2018-06-18T15:04:01.112Z,2.50
2018-06-18T15:07:34.470Z,2.40
2018-06-18T15:11:07.784Z,2.43
2018-06-18T15:14:41.124Z,3.20
2018-06-18T15:18:14.500Z,3.03
2018-06-18T15:21:52.007Z,3.60
2018-06-18T15:25:26.538Z,3.00
2018-06-18T15:28:59.854Z,2.27
2018-06-18T15:32:33.223Z,2.60
2018-06-18T15:36:06.553Z,2.60
2018-06-18T15:39:39.613Z,2.10
2018-06-18T15:43:12.967Z,2.33
2018-06-18T15:46:46.274Z,2.23
2018-06-18T15:50:19.722Z,1.90
2018-06-18T15:53:53.059Z,2.10
2018-06-18T15:57:26.363Z,2.10
2018-06-18T16:00:59.737Z,1.90
2018-06-18T16:04:33.035Z,2.30
2018-06-18T16:08:06.467Z,2.20
2018-06-18T16:11:39.825Z,2.10
2018-06-18T16:15:13.192Z,1.70
2018-06-18T16:18:46.533Z,2.20
2018-06-18T16:22:19.846Z,2.33
2018-06-18T16:25:53.303Z,2.00
2018-06-18T16:29:26.720Z,2.23
2018-06-18T16:33:00.086Z,2.50
2018-06-18T16:36:33.385Z,1.90
2018-06-18T16:40:07.052Z,1.70
2018-06-18T16:43:40.369Z,3.50
2018-06-18T16:47:13.719Z,2.20
2018-06-18T16:50:47.045Z,2.67
2018-06-18T16:54:21.509Z,2.50
2018-06-18T16:57:54.875Z,2.33
2018-06-18T17:01:28.208Z,2.53
2018-06-18T17:05:01.596Z,3.10
2018-06-18T17:08:34.914Z,4.57
2018-06-18T17:12:08.273Z,4.00
2018-06-18T17:15:41.640Z,3.27
2018-06-18T17:19:14.921Z,3.10
2018-06-18T17:22:48.216Z,3.57
2018-06-18T17:26:21.654Z,2.70
2018-06-18T17:29:54.741Z,3.00
2018-06-18T17:33:28.247Z,3.07
2018-06-18T17:37:01.542Z,3.10
2018-06-18T17:40:34.940Z,3.10
2018-06-18T17:44:08.377Z,3.53
2018-06-18T17:47:41.793Z,2.70
2018-06-18T17:51:15.195Z,3.67
2018-06-18T17:54:48.766Z,3.60
2018-06-18T17:58:22.229Z,4.00
2018-06-18T18:01:55.565Z,2.80
2018-06-18T18:05:28.895Z,3.50
2018-06-18T18:09:02.709Z,3.93
2018-06-18T18:12:35.994Z,3.80
2018-06-18T18:16:11.068Z,4.33
2018-06-18T18:20:10.238Z,3.70
2018-06-18T18:23:43.767Z,4.13
2018-06-18T18:27:17.101Z,3.70
2018-06-18T18:30:50.567Z,4.10
2018-06-18T18:34:23.863Z,4.17
2018-06-18T18:37:56.934Z,4.43
2018-06-18T18:41:30.307Z,4.10
2018-06-18T18:45:03.789Z,4.50
2018-06-18T18:48:37.105Z,4.23
2018-06-18T18:52:10.445Z,3.90
2018-06-18T18:55:56.604Z,3.93
2018-06-18T18:59:31.678Z,4.53
2018-06-18T19:03:05.136Z,5.07
2018-06-18T19:06:38.445Z,5.60
2018-06-18T19:10:16.200Z,5.37
2018-06-18T19:13:49.283Z,4.87
2018-06-18T19:17:22.357Z,5.30
2018-06-18T19:20:59.669Z,5.47
2018-06-18T19:24:33.176Z,5.40
2018-06-18T19:28:06.460Z,5.10
2018-06-18T19:31:40.243Z,5.77
2018-06-18T19:35:14.396Z,5.10
2018-06-18T19:38:48.104Z,5.30
2018-06-18T19:42:22.285Z,5.30
2018-06-18T19:46:01.117Z,6.40
2018-06-18T19:49:38.135Z,5.50
2018-06-18T19:53:15.193Z,5.77
2018-06-18T19:56:52.584Z,6.93
2018-06-18T20:00:40.533Z,6.10
2018-06-18T20:04:16.175Z,5.00
2018-06-18T20:07:55.102Z,5.90
2018-06-18T20:11:33.084Z,5.10
2018-06-18T20:15:13.248Z,6.67
2018-06-18T20:18:47.726Z,5.90
2018-06-18T20:22:21.024Z,6.23
2018-06-18T20:26:03.923Z,5.60
2018-06-18T20:29:38.819Z,6.20
2018-06-18T20:33:15.361Z,6.50
2018-06-18T20:36:49.028Z,6.13
2018-06-18T20:40:23.652Z,6.33
2018-06-18T20:44:02.787Z,5.90
2018-06-18T20:47:36.366Z,6.97
2018-06-18T20:51:10.027Z,6.70
2018-06-18T20:54:43.292Z,6.40
2018-06-18T20:58:16.508Z,6.07
2018-06-18T21:01:49.763Z,7.10
2018-06-18T21:05:22.997Z,6.40
2018-06-18T21:08:56.246Z,6.63
2018-06-18T21:12:29.474Z,6.63
2018-06-18T21:16:02.683Z,6.33
2018-06-18T21:19:35.886Z,5.87
2018-06-18T21:23:09.107Z,6.63
2018-06-18T21:26:42.395Z,6.57
2018-06-18T21:30:15.736Z,6.00
2018-06-18T21:33:48.776Z,6.00
2018-06-18T21:37:22.039Z,7.00
2018-06-18T21:40:55.285Z,5.90
2018-06-18T21:44:32.967Z,6.00
2018-06-18T21:48:06.734Z,6.30
2018-06-18T21:51:40.120Z,7.10
2018-06-18T21:55:13.890Z,6.80
2018-06-18T21:58:47.155Z,6.90
2018-06-18T22:02:20.453Z,6.10
2018-06-18T22:05:53.720Z,6.57
2018-06-18T22:09:26.936Z,6.10
2018-06-18T22:13:00.188Z,5.23
2018-06-18T22:16:33.407Z,7.00
2018-06-18T22:20:06.687Z,6.63
2018-06-18T22:23:39.919Z,6.07
2018-06-18T22:27:13.152Z,6.50
2018-06-18T22:30:46.397Z,5.13
2018-06-18T22:34:19.711Z,6.10
2018-06-18T22:37:52.668Z,6.83
2018-06-18T22:41:25.960Z,6.50
2018-06-18T22:44:59.207Z,6.20
2018-06-18T22:48:32.459Z,6.50
2018-06-18T22:52:05.450Z,6.00
2018-06-18T22:55:38.689Z,5.83
2018-06-18T22:59:11.915Z,6.90
2018-06-18T23:02:45.165Z,6.27
2018-06-18T23:06:18.450Z,6.30
2018-06-18T23:09:51.699Z,6.40
2018-06-18T23:13:29.778Z,6.57
2018-06-18T23:17:03.013Z,5.73
2018-06-18T23:20:36.281Z,6.37
2018-06-18T23:24:09.547Z,5.90
2018-06-18T23:27:42.802Z,5.73
2018-06-18T23:31:16.239Z,5.30
2018-06-18T23:34:49.485Z,6.43
2018-06-18T23:38:22.736Z,6.27
2018-06-18T23:41:57.061Z,5.50
2018-06-18T23:45:30.296Z,5.53
2018-06-18T23:49:03.278Z,6.97
2018-06-18T23:52:36.503Z,6.00
2018-06-18T23:56:09.725Z,6.60
2018-06-18T23:59:43.067Z,6.03
